Maud, OK

10:34 AM CST on February 28, 2015 (GMT -0600)
Strothers & Harvey Road SE | Change Station
CLOSE
Current Station
Personal Weather Station
Location: Seminole, OK
Elevation: 955 ft
Nearby Weather Stations
Active Advisory: Winter Weather Advisory Active Notice: Record Report, Local Storm Report

Elev 955 ft 35.23 °N, 96.65 °W | Updated 12 seconds ago

Snow
Snow
23.3 °F
Feels Like 17 °F
N
5.0
Wind Variable Wind from ESE
Gusts 8.0 mph

Today
High -- | Low -- °F
--% Chance of Precip.
Yesterday
High -- | Low -- °F
Precip. -- in
6:58 AM 6:21 PM
Waxing Gibbous, 78% visible
Pressure 30.44 in
Visibility 0.8 miles
Clouds Overcast 700 ft
Windchill 17 °F
Dew Point 20 °F
Humidity 86%
Rainfall 0.00 in
Snow Depth Not available.
UV 1 out of 12
Pollen .80 out of 12
Air Quality Not available.
Flu Activity Not available.
METAR KSNL 281615Z AUTO 00000KT 3/4SM -SN OVC007 M03/M03 A3044 RMK AO2 P0001

More Conditions Fewer Conditions

Pressure 30.44 in
Visibility 0.8 miles
Clouds Overcast 700 ft
Windchill 17 °F
Dew Point 20 °F
Humidity 86%
Rainfall 0.00 in
Snow Depth Not available.
UV 1 out of 12
Pollen .80 out of 12
Air Quality Not available.
Flu Activity Not available.
METAR KSNL 281615Z AUTO 00000KT 3/4SM -SN OVC007 M03/M03 A3044 RMK AO2 P0001

More Conditions Fewer Conditions

10-Day Weather Forecast

Almanac

Astronomy

Feb. 28, 2015 Rise Set
Actual Time
Civil Twilight
Nautical Twilight
Astronomical Twilight
Moon
Length of Visible Light
Length of Day
Tomorrow will be .
, % of the Moon is Illuminated

Today's Extremes

State Highs State Lows

Community

WunderPhotos

Upload Photos

1,801,078 photos uploaded!

WunderBlogs® & News

Nearby

Air Quality

  Air Quality AQ Index Pollutant
Not available.

Snow Depth

Station Depth Elevation

Earthquake Activity

City Distance Mag. Time & Date
Minimum magnitude displayed is 2.5.

Coastal Water Temperatures

Place Temperature

Nearby Weather Stations

Winter Weather Advisory
Statement as of 4:00 AM CST on February 28, 2015

... Winter Weather Advisory now in effect until 6 PM CST this
evening...

* main impact: 1 to 3 inches of new snowfall today.

* Other impacts: slick and hazardous roads are expected.

Precautionary/preparedness actions...

Be careful if you have to travel. Even small amounts of ice and
snow can make roads and sidewalks slick and dangerous.